Weather at Al Qusayr Air Base

Public forecast

Using degrees Celsius for public forecast. Weather courtesy of forecast.io.

Closest aviation weather report (METAR) to Al Qusayr Air Base

Closest report is Hmeimim Air Base, 58.6 nm (108.6 km) NNW.

2024/05/30 22:00 (retrieved 15 minutes ago)

OSLK 302200Z 12004KT 9999 SCT030 20/16 Q1014

Closest aviation forecast (TAF) to Al Qusayr Air Base

Forecast is more than 12 hours old.

Closest forecast is Hmeimim Air Base, 58.6 nm (108.6 km) NNW.

2024/05/29 06:36 (retrieved 2 days ago)

TAF TAF OSLK 290436Z 2906/3006 23015KT 9999 BKN030 TEMPO 2918/3006 16010KT 9999 FEW026TCU SCT030